Terminal Aerodrome Forecast
Issued by NWS El Paso, TX

Home | Current Version | Previous Version | Text Only | Print | Product List | Glossary On
Versions: 1 2 3 4 5 6 7 8 9 10 11 12 13 14
000
FTUS44 KEPZ 301410 AAB
TAFELP
TAF AMD
KELP 301410Z 3014/0112 02012KT 5SM BR VCSH BKN008 BKN015 OVC090
      WS020/20020KT
      TEMPO 3014/3015 04007KT 3SM BR BKN004 OVC015
     FM301500 12007KT P6SM FEW015 SCT040 SCT100
     FM302100 14010KT P6SM VCTS SCT070CB BKN120
     FM010300 17006KT P6SM SCT070 BKN250=

USA.gov is the U.S. government's official web portal to all federal, state and local government web resources and services.